Aviation Digital Data Service (ADDS)

Output produced by METARs form (2258 UTC 27 January 2015)
found at http://aviationweather.gov/adds/metars/
 
KSAN 272108Z 2721/2824 29008KT P6SM FEW070 SCT250 
     FM280100 VRB04KT P6SM SCT250 
     FM282000 29008KT P6SM BKN200